createdAt,value
2018-08-11T00:01:18.484Z,3.10
2018-08-11T00:03:46.995Z,3.60
2018-08-11T00:06:15.778Z,3.40
2018-08-11T00:08:45.448Z,3.10
2018-08-11T00:11:14.018Z,3.43
2018-08-11T00:13:42.929Z,3.27
2018-08-11T00:16:11.469Z,3.27
2018-08-11T00:18:40.066Z,3.43
2018-08-11T00:21:08.609Z,2.93
2018-08-11T00:23:37.170Z,3.07
2018-08-11T00:26:06.635Z,3.67
2018-08-11T00:28:35.799Z,3.90
2018-08-11T00:31:04.679Z,3.23
2018-08-11T00:33:33.203Z,2.80
2018-08-11T00:36:01.951Z,3.90
2018-08-11T00:38:30.922Z,5.13
2018-08-11T00:40:59.444Z,3.40
2018-08-11T00:43:27.979Z,3.20
2018-08-11T00:45:56.529Z,3.50
2018-08-11T00:48:25.072Z,3.40
2018-08-11T00:50:53.615Z,3.47
2018-08-11T00:53:22.177Z,3.30
2018-08-11T00:55:50.702Z,4.07
2018-08-11T00:58:19.231Z,3.43
2018-08-11T01:00:48.586Z,3.53
2018-08-11T01:03:17.140Z,3.30
2018-08-11T01:05:45.673Z,3.37
2018-08-11T01:08:14.252Z,3.50
2018-08-11T01:10:42.777Z,3.60
2018-08-11T01:13:11.351Z,3.63
2018-08-11T01:15:39.914Z,3.47
2018-08-11T01:18:08.460Z,3.40
2018-08-11T01:20:36.986Z,3.37
2018-08-11T01:23:05.591Z,3.53
2018-08-11T01:25:34.142Z,3.30
2018-08-11T01:28:02.680Z,3.60
2018-08-11T01:30:31.218Z,3.50
2018-08-11T01:32:59.768Z,3.50
2018-08-11T01:35:28.309Z,3.83
2018-08-11T01:37:57.567Z,3.47
2018-08-11T01:40:26.947Z,3.70
2018-08-11T01:42:55.540Z,3.70
2018-08-11T01:45:24.043Z,3.63
2018-08-11T01:47:52.586Z,3.30
2018-08-11T01:50:21.112Z,4.40
2018-08-11T01:52:49.662Z,3.23
2018-08-11T01:55:19.061Z,2.80
2018-08-11T01:57:47.616Z,3.50
2018-08-11T02:00:17.154Z,3.53
2018-08-11T02:02:45.704Z,3.13
2018-08-11T02:05:14.247Z,3.50
2018-08-11T02:07:43.543Z,3.27
2018-08-11T02:10:16.471Z,3.23
2018-08-11T02:12:45.656Z,3.00
2018-08-11T02:15:14.593Z,3.17
2018-08-11T02:17:43.140Z,3.20
2018-08-11T02:20:15.822Z,3.93
2018-08-11T02:22:45.375Z,3.00
2018-08-11T02:25:13.978Z,2.80
2018-08-11T02:27:42.533Z,3.07
2018-08-11T02:30:13.263Z,2.70
2018-08-11T02:32:41.867Z,3.43
2018-08-11T02:35:11.581Z,2.77
2018-08-11T02:37:40.446Z,3.63
2018-08-11T02:40:10.587Z,3.20
2018-08-11T02:42:39.104Z,3.00
2018-08-11T02:45:08.909Z,2.67
2018-08-11T02:47:37.437Z,2.60
2018-08-11T02:50:07.553Z,2.77
2018-08-11T02:52:36.071Z,3.13
2018-08-11T02:55:05.065Z,3.07
2018-08-11T02:57:33.729Z,2.93
2018-08-11T03:00:02.302Z,3.07
2018-08-11T03:02:30.979Z,2.70
2018-08-11T03:04:59.446Z,3.23
2018-08-11T03:07:27.957Z,3.30
2018-08-11T03:09:56.647Z,2.90
2018-08-11T03:12:25.180Z,2.70
2018-08-11T03:14:53.792Z,3.00
2018-08-11T03:17:22.314Z,2.30
2018-08-11T03:19:50.944Z,2.57
2018-08-11T03:22:19.453Z,2.47
2018-08-11T03:24:48.003Z,2.40
2018-08-11T03:27:16.525Z,3.10
2018-08-11T03:29:45.116Z,2.50
2018-08-11T03:32:13.753Z,3.90
2018-08-11T03:34:42.294Z,2.00
2018-08-11T03:37:10.806Z,2.43
2018-08-11T03:39:39.373Z,2.10
2018-08-11T03:42:07.886Z,2.30
2018-08-11T03:44:36.431Z,2.10
2018-08-11T03:47:04.996Z,2.67
2018-08-11T03:49:33.558Z,2.43
2018-08-11T03:52:02.100Z,1.87
2018-08-11T03:54:30.640Z,2.40
2018-08-11T03:56:59.197Z,2.20
2018-08-11T03:59:27.754Z,2.20
2018-08-11T04:01:56.301Z,2.57
2018-08-11T04:04:30.540Z,2.70
2018-08-11T04:06:59.300Z,2.20
2018-08-11T04:09:27.837Z,2.10
2018-08-11T04:11:56.381Z,2.40
2018-08-11T04:14:24.956Z,2.50
2018-08-11T04:16:53.478Z,2.03
2018-08-11T04:19:22.041Z,2.13
2018-08-11T04:21:50.556Z,2.10
2018-08-11T04:24:19.094Z,2.40
2018-08-11T04:26:47.630Z,2.20
2018-08-11T04:29:16.193Z,2.20
2018-08-11T04:31:44.713Z,2.37
2018-08-11T04:34:13.572Z,2.30
2018-08-11T04:36:42.099Z,2.50
2018-08-11T04:39:10.664Z,2.30
2018-08-11T04:41:39.480Z,1.90
2018-08-11T04:44:15.230Z,2.17
2018-08-11T04:46:49.288Z,2.73
2018-08-11T04:49:18.976Z,2.63
2018-08-11T04:51:48.568Z,2.43
2018-08-11T04:54:18.333Z,3.03
2018-08-11T04:56:47.877Z,2.43
2018-08-11T04:59:16.426Z,2.10
2018-08-11T05:01:44.964Z,2.60
2018-08-11T05:04:13.480Z,3.10
2018-08-11T05:06:42.035Z,2.90
2018-08-11T05:09:11.127Z,3.33
2018-08-11T05:11:45.370Z,3.07
2018-08-11T05:14:13.924Z,4.00
2018-08-11T05:16:43.382Z,2.93
2018-08-11T05:19:13.040Z,4.40
2018-08-11T05:21:41.627Z,4.30
2018-08-11T05:24:11.098Z,4.50
2018-08-11T05:26:39.646Z,4.50
2018-08-11T05:29:08.167Z,5.03
2018-08-11T05:31:36.687Z,5.10
2018-08-11T05:34:05.220Z,4.83
2018-08-11T05:36:33.770Z,5.33
2018-08-11T05:39:02.494Z,4.63
2018-08-11T05:41:31.108Z,5.67
2018-08-11T05:44:00.108Z,5.07
2018-08-11T05:46:28.686Z,4.40
2018-08-11T05:48:57.234Z,5.60
2018-08-11T05:51:25.768Z,5.83
2018-08-11T05:53:54.283Z,5.23
2018-08-11T05:56:22.825Z,5.10
2018-08-11T05:58:51.555Z,5.73
2018-08-11T06:01:20.120Z,5.27
2018-08-11T06:03:48.640Z,5.97
2018-08-11T06:06:17.190Z,4.67
2018-08-11T06:08:45.714Z,5.23
2018-08-11T06:11:14.257Z,4.30
2018-08-11T06:13:43.018Z,5.20
2018-08-11T06:16:11.549Z,5.90
2018-08-11T06:18:40.048Z,4.50
2018-08-11T06:21:08.697Z,5.10
2018-08-11T06:23:37.197Z,4.50
2018-08-11T06:26:05.832Z,4.57
2018-08-11T06:28:34.340Z,4.00
2018-08-11T06:31:02.942Z,4.73
2018-08-11T06:33:31.725Z,3.57
2018-08-11T06:36:00.266Z,3.50
2018-08-11T06:38:28.794Z,3.27
2018-08-11T06:40:57.516Z,3.50
2018-08-11T06:43:25.901Z,3.60
2018-08-11T06:45:54.463Z,2.80
2018-08-11T06:48:23.010Z,3.20
2018-08-11T06:50:51.550Z,2.90
2018-08-11T06:53:20.094Z,2.80
2018-08-11T06:55:48.649Z,2.70
2018-08-11T06:58:17.173Z,2.33
2018-08-11T07:00:45.773Z,2.50
2018-08-11T07:03:14.291Z,2.30
2018-08-11T07:05:42.921Z,2.40
2018-08-11T07:08:11.465Z,2.20
2018-08-11T07:10:39.985Z,2.27
2018-08-11T07:13:08.599Z,1.70
2018-08-11T07:15:37.151Z,1.80
2018-08-11T07:18:05.736Z,1.70
2018-08-11T07:20:34.265Z,1.40
2018-08-11T07:23:02.848Z,1.63
2018-08-11T07:25:31.574Z,1.30
2018-08-11T07:28:00.282Z,1.53
2018-08-11T07:30:29.061Z,1.73
2018-08-11T07:32:58.016Z,1.80
2018-08-11T07:35:26.547Z,2.33
2018-08-11T07:37:55.113Z,1.80
2018-08-11T07:43:23.721Z,2.00
2018-08-11T07:45:52.240Z,2.33
2018-08-11T07:48:20.708Z,2.30
2018-08-11T07:50:49.162Z,2.40
2018-08-11T07:53:17.628Z,2.30
2018-08-11T07:55:46.173Z,2.10
2018-08-11T08:01:16.152Z,2.40
2018-08-11T08:03:44.613Z,2.43
2018-08-11T08:06:13.092Z,2.50
2018-08-11T08:08:41.551Z,2.13
2018-08-11T08:11:09.993Z,3.83
2018-08-11T08:13:38.539Z,2.67
2018-08-11T08:16:07.003Z,2.87
2018-08-11T08:18:35.491Z,2.73
2018-08-11T08:21:03.937Z,2.63
2018-08-11T08:23:32.403Z,3.20
2018-08-11T08:26:00.905Z,3.00
2018-08-11T08:28:29.289Z,3.40
2018-08-11T08:30:57.691Z,3.00
2018-08-11T08:33:26.137Z,3.50
2018-08-11T08:35:54.581Z,2.83
2018-08-11T08:38:23.042Z,3.00
2018-08-11T08:43:51.552Z,3.33
2018-08-11T08:49:21.145Z,3.50
2018-08-11T08:51:49.584Z,3.50
2018-08-11T08:54:18.060Z,5.40
2018-08-11T08:56:46.515Z,3.70
2018-08-11T08:59:14.984Z,3.50
2018-08-11T09:01:43.423Z,3.10
2018-08-11T09:04:11.873Z,3.30
2018-08-11T09:06:40.352Z,3.47
2018-08-11T09:09:10.348Z,2.97
2018-08-11T09:14:39.453Z,3.00
2018-08-11T09:17:07.894Z,2.80
2018-08-11T09:22:24.953Z,2.50
2018-08-11T09:24:53.392Z,2.30
2018-08-11T09:33:22.465Z,2.50
2018-08-11T09:35:50.911Z,2.10
2018-08-11T09:38:19.355Z,2.73
2018-08-11T09:40:47.802Z,2.57
2018-08-11T09:43:17.429Z,3.10
2018-08-11T09:45:45.948Z,2.80
2018-08-11T09:48:14.491Z,2.50
2018-08-11T09:50:42.945Z,2.90
2018-08-11T09:53:11.431Z,3.13
2018-08-11T09:55:39.996Z,2.83
2018-08-11T09:58:08.530Z,2.60
2018-08-11T10:00:42.460Z,2.50
2018-08-11T10:03:10.957Z,2.23
2018-08-11T10:05:39.411Z,1.90
2018-08-11T10:08:08.195Z,2.53
2018-08-11T10:10:36.719Z,3.20
2018-08-11T10:13:05.433Z,2.80
2018-08-11T10:15:33.919Z,2.70
2018-08-11T10:18:02.509Z,3.33
2018-08-11T10:20:30.986Z,3.13
2018-08-11T10:22:59.522Z,3.37
2018-08-11T10:25:28.306Z,4.10
2018-08-11T10:27:56.807Z,4.33
2018-08-11T10:30:25.275Z,4.20
2018-08-11T10:32:53.735Z,3.30
2018-08-11T10:35:22.185Z,3.87
2018-08-11T10:37:50.641Z,4.33
2018-08-11T10:40:19.140Z,4.30
2018-08-11T10:42:51.619Z,4.53
2018-08-11T10:45:20.071Z,4.97
2018-08-11T10:47:48.546Z,5.17
2018-08-11T10:50:17.015Z,4.60
2018-08-11T10:52:45.446Z,4.77
2018-08-11T10:55:13.895Z,4.43
2018-08-11T10:57:42.388Z,4.23
2018-08-11T11:00:10.882Z,4.47
2018-08-11T11:02:40.160Z,4.47
2018-08-11T11:05:10.545Z,4.70
2018-08-11T11:07:38.986Z,4.53
2018-08-11T11:10:07.988Z,4.70
2018-08-11T11:12:36.412Z,4.20
2018-08-11T11:15:05.895Z,4.10
2018-08-11T11:17:34.311Z,5.00
2018-08-11T11:20:02.750Z,4.20
2018-08-11T11:22:31.213Z,4.40
2018-08-11T11:24:59.720Z,4.47
2018-08-11T11:27:28.168Z,3.80
2018-08-11T11:29:56.606Z,4.23
2018-08-11T11:32:25.053Z,4.27
2018-08-11T11:34:53.518Z,3.50
2018-08-11T11:37:22.003Z,3.50
2018-08-11T11:39:50.396Z,3.33
2018-08-11T11:42:18.819Z,3.37
2018-08-11T11:44:47.259Z,3.00
2018-08-11T11:47:15.689Z,4.03
2018-08-11T11:49:44.138Z,3.57
2018-08-11T11:52:12.559Z,3.43
2018-08-11T11:54:41.082Z,3.23
2018-08-11T11:57:10.041Z,3.03
2018-08-11T11:59:38.588Z,3.00
2018-08-11T12:02:07.154Z,3.53
2018-08-11T12:04:35.679Z,3.50
2018-08-11T12:07:04.160Z,3.40
2018-08-11T12:09:32.601Z,3.57
2018-08-11T12:12:01.029Z,2.90
2018-08-11T12:14:29.495Z,3.33
2018-08-11T12:16:57.907Z,3.60
2018-08-11T12:19:26.400Z,3.47
2018-08-11T12:21:54.818Z,3.47
2018-08-11T12:24:23.278Z,3.40
2018-08-11T12:26:51.689Z,3.10
2018-08-11T12:32:20.385Z,3.10
2018-08-11T12:37:49.381Z,3.10
2018-08-11T12:40:18.323Z,2.60
2018-08-11T12:42:46.817Z,3.10
2018-08-11T12:48:15.325Z,3.33
2018-08-11T12:50:43.808Z,3.43
2018-08-11T12:53:12.243Z,3.13
2018-08-11T12:55:40.681Z,3.30
2018-08-11T12:58:09.085Z,2.80
2018-08-11T13:00:37.632Z,2.30
2018-08-11T13:03:06.092Z,2.20
2018-08-11T13:05:34.538Z,2.60
2018-08-11T13:08:02.954Z,2.60
2018-08-11T13:10:31.398Z,2.80
2018-08-11T13:12:59.841Z,2.77
2018-08-11T13:15:28.328Z,2.97
2018-08-11T13:17:56.736Z,2.77
2018-08-11T13:20:25.185Z,2.60
2018-08-11T13:22:53.612Z,2.43
2018-08-11T13:25:22.049Z,3.50
2018-08-11T13:27:50.457Z,2.80
2018-08-11T13:30:18.943Z,2.10
2018-08-11T13:32:47.473Z,2.80
2018-08-11T13:35:15.918Z,2.60
2018-08-11T13:37:44.344Z,2.80
2018-08-11T13:40:12.789Z,2.30
2018-08-11T13:42:41.746Z,2.10
2018-08-11T13:45:10.201Z,2.43
2018-08-11T13:47:38.629Z,2.30
2018-08-11T13:50:07.333Z,1.90
2018-08-11T13:52:35.761Z,2.07
2018-08-11T13:55:04.899Z,2.20
2018-08-11T13:57:33.311Z,1.93
2018-08-11T14:00:01.813Z,2.20
2018-08-11T14:02:30.295Z,2.13
2018-08-11T14:04:58.694Z,2.27
2018-08-11T14:07:27.156Z,1.97
2018-08-11T14:09:55.555Z,2.23
2018-08-11T14:12:24.202Z,2.10
2018-08-11T14:14:52.864Z,2.13
2018-08-11T14:17:21.571Z,2.07
2018-08-11T14:19:50.469Z,2.00
2018-08-11T14:25:19.705Z,2.20
2018-08-11T14:27:48.368Z,2.20
2018-08-11T14:33:17.640Z,2.37
2018-08-11T14:35:46.335Z,2.30
2018-08-11T14:38:15.028Z,1.80
2018-08-11T14:43:42.397Z,2.00
2018-08-11T14:46:11.064Z,1.70
2018-08-11T14:48:39.719Z,2.17
2018-08-11T14:51:08.363Z,1.50
2018-08-11T14:53:36.980Z,1.90
2018-08-11T14:56:05.540Z,2.07
2018-08-11T14:58:34.043Z,2.00
2018-08-11T15:01:02.497Z,2.70
2018-08-11T15:03:31.324Z,1.90
2018-08-11T15:05:59.757Z,1.83
2018-08-11T15:08:28.192Z,2.30
2018-08-11T15:10:56.668Z,1.80
2018-08-11T15:13:25.081Z,2.13
2018-08-11T15:15:53.672Z,2.80
2018-08-11T15:18:24.205Z,2.27
2018-08-11T15:20:53.346Z,2.40
2018-08-11T15:23:22.032Z,2.00
2018-08-11T15:25:50.680Z,2.23
2018-08-11T15:28:19.309Z,2.03
2018-08-11T15:30:48.590Z,1.87
2018-08-11T15:33:17.046Z,2.00
2018-08-11T15:35:46.501Z,2.20
2018-08-11T15:38:15.152Z,2.50
2018-08-11T15:40:43.706Z,1.90
2018-08-11T15:43:12.323Z,2.10
2018-08-11T15:45:40.886Z,1.97
2018-08-11T15:48:09.471Z,2.60
2018-08-11T15:50:38.017Z,1.83
2018-08-11T15:53:07.747Z,1.80
2018-08-11T15:55:36.203Z,2.37
2018-08-11T15:58:05.886Z,2.00
2018-08-11T16:00:35.011Z,2.03
2018-08-11T16:03:04.268Z,2.30
2018-08-11T16:05:32.918Z,2.13
2018-08-11T16:08:01.470Z,1.50
2018-08-11T16:10:29.914Z,1.87
2018-08-11T16:12:59.263Z,1.87
2018-08-11T16:15:27.820Z,1.80
2018-08-11T16:17:56.296Z,1.70
2018-08-11T16:20:24.707Z,1.87
2018-08-11T16:22:53.249Z,2.30
2018-08-11T16:25:21.681Z,2.20
2018-08-11T16:27:50.109Z,1.90
2018-08-11T16:30:18.513Z,2.13
2018-08-11T16:32:46.930Z,2.87
2018-08-11T16:35:15.430Z,1.83
2018-08-11T16:37:43.878Z,2.47
2018-08-11T16:40:12.282Z,1.87
2018-08-11T16:42:40.706Z,2.10
2018-08-11T16:45:09.377Z,1.77
2018-08-11T16:47:37.870Z,1.83
2018-08-11T16:50:06.474Z,1.70
2018-08-11T16:52:34.917Z,2.20
2018-08-11T16:55:04.014Z,2.70
2018-08-11T16:57:33.330Z,3.10
2018-08-11T17:00:01.799Z,1.77
2018-08-11T17:02:30.296Z,2.60
2018-08-11T17:04:58.725Z,2.10
2018-08-11T17:07:27.166Z,2.87
2018-08-11T17:09:55.593Z,2.70
2018-08-11T17:12:24.035Z,2.20
2018-08-11T17:14:52.487Z,2.03
2018-08-11T17:17:20.910Z,2.20
2018-08-11T17:19:49.326Z,2.20
2018-08-11T17:22:22.692Z,2.17
2018-08-11T17:24:51.140Z,2.87
2018-08-11T17:27:19.587Z,2.03
2018-08-11T17:29:47.991Z,2.63
2018-08-11T17:32:16.556Z,2.00
2018-08-11T17:34:45.015Z,2.50
2018-08-11T17:37:14.278Z,1.83
2018-08-11T17:39:44.156Z,2.30
2018-08-11T17:42:12.746Z,2.20
2018-08-11T17:44:41.468Z,2.60
2018-08-11T17:47:10.218Z,2.20
2018-08-11T17:49:38.898Z,2.40
2018-08-11T17:52:08.159Z,2.50
2018-08-11T17:54:36.870Z,2.30
2018-08-11T17:57:05.455Z,2.37
2018-08-11T17:59:33.924Z,2.40
2018-08-11T18:02:02.529Z,2.97
2018-08-11T18:04:31.029Z,2.57
2018-08-11T18:06:59.550Z,2.37
2018-08-11T18:09:28.755Z,2.67
2018-08-11T18:11:57.664Z,2.60
2018-08-11T18:14:26.545Z,2.40
2018-08-11T18:16:55.097Z,3.83
2018-08-11T18:19:23.699Z,2.70
2018-08-11T18:21:52.332Z,2.07
2018-08-11T18:24:20.811Z,1.90
2018-08-11T18:26:49.305Z,2.17
2018-08-11T18:29:17.952Z,2.47
2018-08-11T18:31:46.529Z,2.27
2018-08-11T18:34:15.289Z,2.47
2018-08-11T18:36:43.790Z,1.90
2018-08-11T18:39:13.856Z,2.30
2018-08-11T18:41:43.138Z,2.10
2018-08-11T18:44:11.881Z,2.37
2018-08-11T18:46:40.629Z,2.50
2018-08-11T18:49:09.803Z,2.47
2018-08-11T18:51:38.255Z,2.40
2018-08-11T18:54:06.748Z,2.30
2018-08-11T18:56:35.817Z,2.47
2018-08-11T18:59:04.402Z,2.13
2018-08-11T19:01:33.005Z,2.37
2018-08-11T19:04:01.459Z,2.20
2018-08-11T19:06:29.935Z,2.50
2018-08-11T19:08:58.491Z,2.17
2018-08-11T19:11:26.910Z,2.57
2018-08-11T19:13:55.441Z,2.30
2018-08-11T19:16:23.947Z,2.53
2018-08-11T19:18:52.780Z,2.30
2018-08-11T19:21:21.449Z,2.03
2018-08-11T19:23:49.890Z,2.30
2018-08-11T19:26:18.309Z,2.50
2018-08-11T19:28:48.342Z,2.57
2018-08-11T19:31:16.785Z,2.60
2018-08-11T19:33:45.246Z,2.33
2018-08-11T19:36:13.766Z,2.57
2018-08-11T19:38:42.322Z,2.43
2018-08-11T19:41:11.702Z,2.23
2018-08-11T19:43:41.097Z,2.03
2018-08-11T19:46:09.780Z,2.30
2018-08-11T19:48:38.404Z,2.70
2018-08-11T19:51:07.051Z,2.40
2018-08-11T19:53:36.399Z,2.40
2018-08-11T19:56:05.186Z,2.50
2018-08-11T19:58:33.703Z,2.70
2018-08-11T20:01:02.338Z,2.10
2018-08-11T20:03:30.804Z,2.30
2018-08-11T20:05:59.388Z,2.87
2018-08-11T20:08:28.128Z,2.50
2018-08-11T20:10:56.703Z,2.50
2018-08-11T20:13:26.176Z,2.50
2018-08-11T20:15:54.857Z,2.77
2018-08-11T20:18:23.368Z,2.40
2018-08-11T20:20:51.839Z,2.40
2018-08-11T20:23:20.290Z,2.23
2018-08-11T20:25:48.729Z,2.23
2018-08-11T20:28:17.164Z,2.17
2018-08-11T20:30:45.606Z,2.53
2018-08-11T20:33:14.873Z,2.70
2018-08-11T20:35:43.336Z,2.83
2018-08-11T20:38:11.782Z,2.70
2018-08-11T20:40:40.238Z,2.40
2018-08-11T20:43:08.704Z,3.13
2018-08-11T20:45:39.094Z,2.57
2018-08-11T20:48:07.686Z,3.00
2018-08-11T20:50:36.353Z,2.47
2018-08-11T20:53:04.965Z,2.80
2018-08-11T20:55:33.467Z,2.60
2018-08-11T20:58:02.166Z,2.40
2018-08-11T21:00:30.671Z,3.00
2018-08-11T21:02:59.181Z,3.53
2018-08-11T21:05:27.628Z,4.40
2018-08-11T21:07:56.078Z,3.50
2018-08-11T21:10:24.573Z,3.53
2018-08-11T21:12:52.979Z,2.90
2018-08-11T21:15:21.509Z,2.70
2018-08-11T21:17:49.914Z,3.00
2018-08-11T21:20:18.441Z,3.17
2018-08-11T21:22:46.893Z,3.23
2018-08-11T21:25:15.344Z,3.30
2018-08-11T21:27:43.764Z,3.37
2018-08-11T21:30:13.702Z,3.50
2018-08-11T21:32:42.502Z,3.30
2018-08-11T21:35:11.263Z,3.27
2018-08-11T21:37:39.686Z,3.50
2018-08-11T21:40:11.223Z,3.33
2018-08-11T21:42:39.892Z,3.23
2018-08-11T21:45:08.671Z,2.87
2018-08-11T21:47:37.218Z,2.70
2018-08-11T21:50:06.153Z,3.00
2018-08-11T21:52:34.637Z,2.63
2018-08-11T21:55:03.073Z,2.93
2018-08-11T21:57:31.519Z,2.80
2018-08-11T21:59:59.943Z,3.00
2018-08-11T22:02:28.412Z,2.80
2018-08-11T22:04:56.893Z,2.37
2018-08-11T22:07:25.332Z,2.73
2018-08-11T22:09:53.812Z,3.07
2018-08-11T22:12:22.360Z,2.83
2018-08-11T22:14:50.860Z,3.30
2018-08-11T22:17:19.358Z,3.10
2018-08-11T22:19:47.804Z,3.00
2018-08-11T22:22:16.426Z,2.87
2018-08-11T22:24:44.901Z,3.03
2018-08-11T22:27:13.358Z,3.50
2018-08-11T22:29:41.792Z,3.30
2018-08-11T22:32:10.246Z,3.50
2018-08-11T22:34:38.703Z,3.90
2018-08-11T22:37:07.158Z,3.30
2018-08-11T22:39:35.575Z,3.50
2018-08-11T22:42:04.060Z,4.17
2018-08-11T22:44:32.665Z,3.10
2018-08-11T22:47:01.330Z,3.60
2018-08-11T22:49:29.894Z,3.40
2018-08-11T22:51:58.499Z,3.80
2018-08-11T22:54:27.065Z,3.93
2018-08-11T22:56:55.657Z,3.47
2018-08-11T22:59:24.238Z,4.57
2018-08-11T23:01:52.927Z,3.57
2018-08-11T23:04:21.503Z,3.50
2018-08-11T23:06:50.117Z,3.47
2018-08-11T23:09:18.708Z,3.00
2018-08-11T23:11:47.328Z,3.90
2018-08-11T23:14:15.902Z,3.23
2018-08-11T23:16:44.491Z,3.60
2018-08-11T23:19:13.073Z,3.40
2018-08-11T23:21:41.668Z,3.43
2018-08-11T23:24:11.064Z,3.10
2018-08-11T23:26:39.652Z,2.83
2018-08-11T23:29:08.230Z,3.40
2018-08-11T23:31:36.826Z,3.43
2018-08-11T23:34:05.398Z,3.60
2018-08-11T23:36:34.021Z,3.60
2018-08-11T23:39:02.597Z,3.83
2018-08-11T23:41:31.226Z,3.80
2018-08-11T23:43:59.798Z,3.60
2018-08-11T23:46:28.383Z,3.70
2018-08-11T23:48:56.988Z,3.57
2018-08-11T23:51:25.611Z,3.20
2018-08-11T23:53:54.202Z,3.63
2018-08-11T23:56:22.831Z,3.13
2018-08-11T23:58:51.492Z,3.57
